createdAt,value
2018-06-12T00:04:13.482Z,53.30
2018-06-12T00:09:04.382Z,53.20
2018-06-12T00:13:55.289Z,53.20
2018-06-12T00:18:46.228Z,53.30
2018-06-12T00:23:37.124Z,53.30
2018-06-12T00:28:28.084Z,53.30
2018-06-12T00:33:18.977Z,53.50
2018-06-12T00:38:09.917Z,53.40
2018-06-12T00:43:00.825Z,53.50
2018-06-12T00:47:51.721Z,53.50
2018-06-12T00:52:42.607Z,53.40
2018-06-12T00:57:34.240Z,53.50
2018-06-12T01:02:25.885Z,53.70
2018-06-12T01:07:16.785Z,53.70
2018-06-12T01:12:08.491Z,53.60
2018-06-12T01:16:59.409Z,53.60
2018-06-12T01:21:50.306Z,53.70
2018-06-12T01:26:41.199Z,53.70
2018-06-12T01:31:32.151Z,53.70
2018-06-12T01:36:23.043Z,53.80
2018-06-12T01:41:13.938Z,53.80
2018-06-12T01:46:05.566Z,53.90
2018-06-12T01:50:57.268Z,53.80
2018-06-12T01:55:48.166Z,53.70
2018-06-12T02:00:39.124Z,53.80
2018-06-12T02:05:31.553Z,53.70
2018-06-12T02:10:22.445Z,53.70
2018-06-12T02:15:13.610Z,53.80
2018-06-12T02:20:04.528Z,53.80
2018-06-12T02:24:55.565Z,53.80
2018-06-12T02:29:46.560Z,53.80
2018-06-12T02:34:37.465Z,53.80
2018-06-12T02:39:28.396Z,53.80
2018-06-12T02:44:19.284Z,53.90
2018-06-12T02:49:10.167Z,53.90
2018-06-12T02:54:01.052Z,53.90
2018-06-12T02:58:52.022Z,53.90
2018-06-12T03:03:42.882Z,54.00
2018-06-12T03:08:33.812Z,54.00
2018-06-12T03:13:24.725Z,53.90
2018-06-12T03:18:15.630Z,54.00
2018-06-12T03:23:06.531Z,53.90
2018-06-12T03:27:57.445Z,54.00
2018-06-12T03:32:48.340Z,54.20
2018-06-12T03:37:40.008Z,54.20
2018-06-12T03:42:30.930Z,54.10
2018-06-12T03:47:21.881Z,54.20
2018-06-12T03:52:12.780Z,54.30
2018-06-12T03:57:03.670Z,54.10
2018-06-12T04:01:54.578Z,54.40
2018-06-12T04:06:46.232Z,54.40
2018-06-12T04:11:37.112Z,54.40
2018-06-12T04:16:28.020Z,54.50
2018-06-12T04:21:19.731Z,54.90
2018-06-12T04:26:10.679Z,54.90
2018-06-12T04:31:02.320Z,55.20
2018-06-12T04:35:53.204Z,55.20
2018-06-12T04:40:44.083Z,55.30
2018-06-12T04:45:35.050Z,55.40
2018-06-12T04:50:25.966Z,55.40
2018-06-12T04:55:16.893Z,55.40
2018-06-12T05:00:07.798Z,55.70
2018-06-12T05:04:58.728Z,55.80
2018-06-12T05:09:49.622Z,56.00
2018-06-12T05:14:40.557Z,56.00
2018-06-12T05:19:31.475Z,55.80
2018-06-12T05:24:22.375Z,55.60
2018-06-12T05:29:13.277Z,55.50
2018-06-12T05:34:04.228Z,55.30
2018-06-12T05:38:55.134Z,55.20
2018-06-12T05:43:46.037Z,55.90
2018-06-12T05:48:36.930Z,55.30
2018-06-12T05:53:28.570Z,55.10
2018-06-12T05:58:20.211Z,55.10
2018-06-12T06:03:11.103Z,55.10
2018-06-12T06:08:02.814Z,55.10
2018-06-12T06:12:53.700Z,55.00
2018-06-12T06:17:44.597Z,55.10
2018-06-12T06:22:36.336Z,55.00
2018-06-12T06:27:27.205Z,54.90
2018-06-12T06:32:18.114Z,54.90
2018-06-12T06:37:09.026Z,54.80
2018-06-12T06:41:59.911Z,54.60
2018-06-12T06:46:50.889Z,54.50
2018-06-12T06:51:41.785Z,54.50
2018-06-12T06:56:32.696Z,54.50
2018-06-12T07:01:23.641Z,54.40
2018-06-12T07:06:14.549Z,54.20
2018-06-12T07:11:05.447Z,53.90
2018-06-12T07:15:57.227Z,53.50
2018-06-12T07:20:56.141Z,53.50
2018-06-12T07:25:47.789Z,53.90
2018-06-12T07:30:39.437Z,53.30
2018-06-12T07:35:30.341Z,53.20
2018-06-12T07:40:21.980Z,52.80
2018-06-12T07:45:13.690Z,52.80
2018-06-12T07:50:04.602Z,52.70
2018-06-12T07:54:55.577Z,52.70
2018-06-12T07:59:47.222Z,52.50
2018-06-12T08:04:38.112Z,52.40
2018-06-12T08:09:29.749Z,52.40
2018-06-12T08:14:21.393Z,52.30
2018-06-12T08:19:13.033Z,52.30
2018-06-12T08:24:04.669Z,52.10
2018-06-12T08:28:55.609Z,52.00
2018-06-12T08:33:46.545Z,51.80
2018-06-12T08:38:37.576Z,51.30
2018-06-12T08:43:28.473Z,51.20
2018-06-12T08:48:19.372Z,51.40
2018-06-12T08:53:10.317Z,51.50
2018-06-12T08:58:01.213Z,51.50
2018-06-12T09:02:52.113Z,51.50
2018-06-12T09:07:43.754Z,51.30
2018-06-12T09:12:34.678Z,51.30
2018-06-12T09:17:25.581Z,51.10
2018-06-12T09:22:17.221Z,51.00
2018-06-12T09:27:08.857Z,51.00
2018-06-12T09:32:00.493Z,50.90
2018-06-12T09:36:52.123Z,51.10
2018-06-12T09:41:43.968Z,51.00
2018-06-12T09:46:34.866Z,51.00
2018-06-12T09:51:26.522Z,51.00
2018-06-12T09:56:17.420Z,51.00
2018-06-12T10:01:08.358Z,51.00
2018-06-12T10:06:00.018Z,50.60
2018-06-12T10:10:50.925Z,50.50
2018-06-12T10:15:41.894Z,50.50
2018-06-12T10:20:32.812Z,50.20
2018-06-12T10:25:23.811Z,50.20
2018-06-12T10:30:14.713Z,50.30
2018-06-12T10:35:05.604Z,50.40
2018-06-12T10:39:57.270Z,50.20
2018-06-12T10:44:48.197Z,50.10
2018-06-12T10:49:39.219Z,49.70
2018-06-12T10:54:30.126Z,49.20
2018-06-12T10:59:21.030Z,48.90
2018-06-12T11:04:11.925Z,49.00
2018-06-12T11:09:03.556Z,48.60
2018-06-12T11:13:55.256Z,48.20
2018-06-12T11:18:46.164Z,48.20
2018-06-12T11:23:37.062Z,48.00
2018-06-12T11:28:28.008Z,48.40
2018-06-12T11:33:18.896Z,48.30
2018-06-12T11:38:09.784Z,48.00
2018-06-12T11:43:01.646Z,47.40
2018-06-12T11:47:52.607Z,47.30
2018-06-12T11:52:43.501Z,47.30
2018-06-12T11:57:34.395Z,47.00
2018-06-12T12:02:26.038Z,46.80
2018-06-12T12:07:16.950Z,46.80
2018-06-12T12:12:07.853Z,47.10
2018-06-12T12:16:59.514Z,45.60
2018-06-12T12:21:51.141Z,46.10
2018-06-12T12:26:42.042Z,46.10
2018-06-12T12:31:33.690Z,45.70
2018-06-12T12:36:25.334Z,44.80
2018-06-12T12:41:16.292Z,44.80
2018-06-12T12:46:07.184Z,44.50
2018-06-12T12:50:58.074Z,44.10
2018-06-12T12:55:49.778Z,44.30
2018-06-12T13:00:40.679Z,44.30
2018-06-12T13:05:31.581Z,44.20
2018-06-12T13:10:29.629Z,43.40
2018-06-12T13:15:21.265Z,42.50
2018-06-12T13:20:13.003Z,42.60
2018-06-12T13:25:03.885Z,42.50
2018-06-12T13:29:54.771Z,42.50
2018-06-12T13:34:45.731Z,42.00
2018-06-12T13:39:36.654Z,42.30
2018-06-12T13:44:27.801Z,42.50
2018-06-12T13:49:19.501Z,41.70
2018-06-12T13:54:10.508Z,41.70
2018-06-12T13:59:01.421Z,41.30
2018-06-12T14:03:52.365Z,41.50
2018-06-12T14:08:43.289Z,41.50
2018-06-12T14:13:34.344Z,41.80
2018-06-12T14:18:25.234Z,41.60
2018-06-12T14:23:16.145Z,41.60
2018-06-12T14:28:07.081Z,42.00
2018-06-12T14:32:57.972Z,41.00
2018-06-12T14:37:48.868Z,40.80
2018-06-12T14:42:39.808Z,40.60
2018-06-12T14:47:30.713Z,40.90
2018-06-12T14:52:21.661Z,41.70
2018-06-12T14:57:12.560Z,42.20
2018-06-12T15:02:03.465Z,42.40
2018-06-12T15:06:54.417Z,41.70
2018-06-12T15:11:46.810Z,41.20
2018-06-12T15:16:37.717Z,41.20
2018-06-12T15:21:29.413Z,40.60
2018-06-12T15:26:20.321Z,40.60
2018-06-12T15:31:11.224Z,40.80
2018-06-12T15:36:02.179Z,41.50
2018-06-12T15:40:53.190Z,41.90
2018-06-12T15:45:44.105Z,42.20
2018-06-12T15:50:35.340Z,42.40
2018-06-12T15:55:26.273Z,42.40
2018-06-12T16:00:17.917Z,42.00
2018-06-12T16:05:08.942Z,42.50
2018-06-12T16:10:00.637Z,42.60
2018-06-12T16:14:51.532Z,42.60
2018-06-12T16:19:42.429Z,42.80
2018-06-12T16:24:33.330Z,42.90
2018-06-12T16:29:24.974Z,42.90
2018-06-12T16:34:16.613Z,43.00
2018-06-12T16:39:08.273Z,43.20
2018-06-12T16:43:59.172Z,43.20
2018-06-12T16:48:50.800Z,43.60
2018-06-12T16:53:42.435Z,43.70
2018-06-12T16:58:34.140Z,43.80
2018-06-12T17:03:25.041Z,43.80
2018-06-12T17:08:15.940Z,44.20
2018-06-12T17:13:06.882Z,44.30
2018-06-12T17:17:57.765Z,44.60
2018-06-12T17:22:48.740Z,44.80
2018-06-12T17:27:39.657Z,45.00
2018-06-12T17:32:30.559Z,45.00
2018-06-12T17:37:21.470Z,45.20
2018-06-12T17:42:12.412Z,45.20
2018-06-12T17:47:03.293Z,45.50
2018-06-12T17:51:54.196Z,45.70
2018-06-12T17:56:45.106Z,45.60
2018-06-12T18:01:36.010Z,45.70
2018-06-12T18:06:27.649Z,45.70
2018-06-12T18:11:19.297Z,45.80
2018-06-12T18:16:10.950Z,45.80
2018-06-12T18:21:01.890Z,45.80
2018-06-12T18:25:52.797Z,46.00
2018-06-12T18:30:43.705Z,46.10
2018-06-12T18:35:34.645Z,46.10
2018-06-12T18:40:25.552Z,46.10
2018-06-12T18:45:16.470Z,46.10
2018-06-12T18:50:07.373Z,46.00
2018-06-12T18:54:58.327Z,46.00
2018-06-12T18:59:49.228Z,46.10
2018-06-12T19:04:40.125Z,46.20
2018-06-12T19:09:31.033Z,46.10
2018-06-12T19:14:22.746Z,46.20
2018-06-12T19:19:13.653Z,46.20
2018-06-12T19:24:04.553Z,46.30
2018-06-12T19:28:55.454Z,46.30
2018-06-12T19:33:46.366Z,46.30
2018-06-12T19:38:37.390Z,46.50
2018-06-12T19:43:28.355Z,46.50
2018-06-12T19:48:19.232Z,46.60
2018-06-12T19:53:10.128Z,46.70
2018-06-12T19:58:01.309Z,46.50
2018-06-12T20:02:52.239Z,46.70
2018-06-12T20:07:43.141Z,46.80
2018-06-12T20:12:34.082Z,46.90
2018-06-12T20:17:24.993Z,47.00
2018-06-12T20:22:15.901Z,47.10
2018-06-12T20:27:06.815Z,47.10
2018-06-12T20:31:57.720Z,47.90
2018-06-12T20:36:48.643Z,47.40
2018-06-12T20:41:39.604Z,47.40
2018-06-12T20:46:30.534Z,47.70
2018-06-12T20:51:22.189Z,47.80
2018-06-12T20:56:13.138Z,47.80
2018-06-12T21:01:04.757Z,48.10
2018-06-12T21:05:55.660Z,48.00
2018-06-12T21:10:46.566Z,48.20
2018-06-12T21:15:37.473Z,48.30
2018-06-12T21:20:29.116Z,48.70
2018-06-12T21:25:20.757Z,48.70
2018-06-12T21:30:11.673Z,48.60
2018-06-12T21:35:02.692Z,49.00
2018-06-12T21:39:54.417Z,49.10
2018-06-12T21:44:46.068Z,49.30
2018-06-12T21:49:36.957Z,49.20
2018-06-12T21:54:27.865Z,49.30
2018-06-12T21:59:18.769Z,49.40
2018-06-12T22:04:09.822Z,49.40
2018-06-12T22:09:00.781Z,49.40
2018-06-12T22:13:51.732Z,49.50
2018-06-12T22:18:42.638Z,49.40
2018-06-12T22:23:33.614Z,49.50
2018-06-12T22:28:24.592Z,49.50
2018-06-12T22:33:15.638Z,49.60
2018-06-12T22:38:07.439Z,49.50
2018-06-12T22:42:58.416Z,49.50
2018-06-12T22:47:50.153Z,49.70
2018-06-12T22:52:41.889Z,49.70
2018-06-12T22:57:33.629Z,49.60
2018-06-12T23:02:24.779Z,49.50
2018-06-12T23:07:15.784Z,49.60
2018-06-12T23:12:13.815Z,49.60
2018-06-12T23:17:04.844Z,49.70
2018-06-12T23:21:55.725Z,49.70
2018-06-12T23:26:46.669Z,49.60
2018-06-12T23:31:37.613Z,49.70
2018-06-12T23:36:30.025Z,49.60
2018-06-12T23:41:21.065Z,49.60
2018-06-12T23:46:11.997Z,49.70
2018-06-12T23:51:02.924Z,49.80
2018-06-12T23:55:53.871Z,49.80
